Time;durP1;ratioP1;P1;durP2;ratioP2;P2;SDS_P1;SDS_P2;PMS_P1;PMS_P2;Temp;Humidity;BMP_temperature;BMP_pressure;BME280_temperature;BME280_humidity;BME280_pressure;Samples;Min_cycle;Max_cycle;Signal;HPM_P1;HPM_P2
2022/05/15 00:00:50;;;;;;;18.05;7.07;;;;;;;11.56;71.33;99642.53;8211498;28;20452;-72
2022/05/15 00:04:52;;;;;;;21.73;6.65;;;;;;;11.57;71.22;99641.44;8231709;28;20488;-71
2022/05/15 00:08:53;;;;;;;19.13;6.82;;;;;;;11.57;71.07;99644.94;8202614;28;20098;-71
2022/05/15 00:12:54;;;;;;;25.27;7.10;;;;;;;11.57;71.14;99646.84;8170962;29;20047;-71
2022/05/15 00:16:55;;;;;;;20.10;6.90;;;;;;;11.53;71.02;99649.31;8202488;28;20475;-71
2022/05/15 00:20:56;;;;;;;25.88;7.00;;;;;;;11.49;71.13;99661.06;8201946;28;20057;-70
2022/05/15 00:25:03;;;;;;;20.98;6.13;;;;;;;11.49;71.10;99655.66;8199902;28;20055;-71
2022/05/15 00:29:04;;;;;;;17.10;6.38;;;;;;;11.46;71.29;99656.25;8200665;28;20062;-71
2022/05/15 00:33:06;;;;;;;19.48;7.05;;;;;;;11.42;71.27;99651.44;8231413;28;20044;-71
2022/05/15 00:37:07;;;;;;;18.65;6.50;;;;;;;11.40;71.60;99663.66;8210699;28;20054;-71
2022/05/15 00:41:09;;;;;;;16.30;6.63;;;;;;;11.38;71.79;99661.25;8201521;28;20066;-71
2022/05/15 00:45:11;;;;;;;14.15;5.75;;;;;;;11.34;72.13;99657.56;8215042;28;20051;-71
2022/05/15 00:49:13;;;;;;;18.20;5.90;;;;;;;11.32;71.95;99667.06;8222291;28;20137;-71
2022/05/15 00:53:14;;;;;;;14.45;5.85;;;;;;;11.30;72.16;99664.66;8199981;29;20043;-72
2022/05/15 00:57:21;;;;;;;16.52;5.90;;;;;;;11.25;72.11;99666.66;8212125;28;20113;-71
2022/05/15 01:01:22;;;;;;;23.33;6.38;;;;;;;11.20;72.31;99667.56;8232925;28;20170;-71
2022/05/15 01:05:23;;;;;;;22.58;6.05;;;;;;;11.13;72.15;99669.84;8200724;28;20499;-71
2022/05/15 01:09:24;;;;;;;18.85;6.32;;;;;;;11.05;72.62;99673.22;8215335;28;20052;-71
2022/05/15 01:13:28;;;;;;;20.08;6.07;;;;;;;10.92;72.70;99668.63;8198538;28;20054;-71
2022/05/15 01:17:29;;;;;;;18.60;6.38;;;;;;;10.81;72.83;99667.19;8152331;29;20071;-71
2022/05/15 01:21:51;;;;;;;17.25;6.03;;;;;;;10.75;72.99;99676.47;8183676;28;20054;-71
2022/05/15 01:25:52;;;;;;;19.35;6.50;;;;;;;10.64;73.16;99666.91;8200078;28;20825;-71
2022/05/15 01:29:53;;;;;;;17.48;6.00;;;;;;;10.51;73.52;99674.69;8215542;28;20478;-71
2022/05/15 01:33:54;;;;;;;15.90;7.40;;;;;;;10.45;73.90;99686.66;8217924;28;20407;-71
2022/05/15 01:37:55;;;;;;;18.63;6.65;;;;;;;10.36;74.46;99677.63;8206998;28;20047;-71
2022/05/15 01:41:56;;;;;;;25.55;6.82;;;;;;;10.32;74.29;99678.50;8203730;28;20051;-71
2022/05/15 01:45:58;;;;;;;18.02;6.38;;;;;;;10.24;74.50;99679.97;8200187;28;20059;-72
2022/05/15 01:50:00;;;;;;;19.30;6.50;;;;;;;10.19;74.40;99682.75;8201779;28;20125;-71
2022/05/15 01:54:02;;;;;;;22.52;6.82;;;;;;;10.20;74.47;99684.34;8199798;28;20428;-71
2022/05/15 01:58:03;;;;;;;20.95;7.03;;;;;;;10.27;74.34;99673.97;8213616;28;20059;-71
2022/05/15 02:02:04;;;;;;;13.82;6.50;;;;;;;10.27;74.46;99683.97;8206274;28;20070;-72
2022/05/15 02:06:05;;;;;;;24.88;7.07;;;;;;;10.30;74.21;99681.50;8219174;28;20399;-71
2022/05/15 02:10:07;;;;;;;18.73;6.40;;;;;;;10.27;74.27;99683.97;8199743;28;20062;-71
2022/05/15 02:14:09;;;;;;;16.27;5.93;;;;;;;10.23;74.73;99672.16;8199171;28;20064;-72
2022/05/15 02:18:09;;;;;;;26.25;7.55;;;;;;;10.17;74.84;99679.53;8213170;28;20083;-71
2022/05/15 02:22:12;;;;;;;15.73;5.90;;;;;;;10.16;74.89;99677.91;8210631;28;20047;-71
2022/05/15 02:26:13;;;;;;;23.27;6.57;;;;;;;10.14;74.88;99677.38;8229606;28;20039;-71
2022/05/15 02:30:15;;;;;;;20.38;6.00;;;;;;;10.13;74.85;99683.88;8240361;28;20050;-72
2022/05/15 02:34:16;;;;;;;21.35;6.60;;;;;;;10.08;75.08;99681.25;8229762;28;20419;-71
2022/05/15 02:38:17;;;;;;;18.10;6.35;;;;;;;9.95;75.35;99692.75;8206509;28;20055;-72
2022/05/15 02:42:20;;;;;;;16.38;6.35;;;;;;;9.79;75.89;99685.94;8205745;28;20114;-71
2022/05/15 02:46:21;;;;;;;22.80;6.28;;;;;;;9.69;75.89;99697.66;8193801;28;20067;-71
2022/05/15 02:54:43;;;;;;;14.77;6.00;;;;;;;9.51;76.19;99693.84;8208280;28;20161;-71
2022/05/15 02:58:44;;;;;;;16.42;6.10;;;;;;;9.40;76.37;99703.13;8175008;28;20051;-70
2022/05/15 03:02:45;;;;;;;16.60;5.85;;;;;;;9.32;76.59;99695.66;8219720;28;20414;-70
2022/05/15 03:06:46;;;;;;;17.17;6.18;;;;;;;9.24;76.57;99707.06;8217939;28;20043;-71
2022/05/15 03:10:47;;;;;;;13.75;5.63;;;;;;;9.13;76.63;99708.25;8204598;29;20486;-71
2022/05/15 03:14:48;;;;;;;16.77;6.32;;;;;;;9.05;76.64;99708.84;8204083;28;20105;-71
2022/05/15 03:18:50;;;;;;;17.33;5.55;;;;;;;8.99;76.69;99718.09;8204245;28;20134;-71
2022/05/15 03:22:51;;;;;;;20.15;5.60;;;;;;;8.92;76.83;99718.41;8204236;28;20509;-71
2022/05/15 03:26:52;;;;;;;16.38;6.22;;;;;;;8.89;76.41;99725.16;8219921;28;20043;-71
2022/05/15 03:30:53;;;;;;;13.05;5.60;;;;;;;8.80;76.67;99718.78;8208581;28;20047;-71
2022/05/15 03:34:54;;;;;;;14.52;5.80;;;;;;;8.77;76.76;99721.25;8199869;28;20047;-70
2022/05/15 03:38:55;;;;;;;14.00;5.45;;;;;;;8.73;76.75;99730.94;8202166;28;20149;-71
2022/05/15 03:42:56;;;;;;;21.70;5.78;;;;;;;8.70;76.75;99721.56;8202343;28;20113;-71
2022/05/15 03:46:57;;;;;;;19.10;6.10;;;;;;;8.72;76.72;99724.78;8202949;28;20122;-71
2022/05/15 03:50:59;;;;;;;18.05;6.05;;;;;;;8.68;76.92;99729.09;8203097;28;20074;-71
2022/05/15 03:55:00;;;;;;;26.00;6.63;;;;;;;8.70;77.15;99732.31;8206075;28;20066;-70
2022/05/15 03:59:01;;;;;;;18.98;5.60;;;;;;;8.73;76.80;99737.13;8230667;28;20495;-71
2022/05/15 04:03:03;;;;;;;15.15;5.72;;;;;;;8.80;76.98;99745.72;8231026;28;20067;-70
2022/05/15 04:07:05;;;;;;;12.80;5.97;;;;;;;8.83;77.06;99742.44;8209463;28;20511;-71
2022/05/15 04:11:05;;;;;;;20.08;6.55;;;;;;;8.89;77.02;99735.94;8202177;28;20043;-71
2022/05/15 04:15:07;;;;;;;19.05;6.47;;;;;;;9.01;76.85;99748.25;8230841;28;20047;-71
2022/05/15 04:19:08;;;;;;;19.42;6.97;;;;;;;9.13;76.92;99752.19;8219294;28;20102;-71
2022/05/15 04:23:09;;;;;;;24.55;7.50;;;;;;;9.23;77.16;99756.66;8201583;28;20057;-71
2022/05/15 04:27:10;;;;;;;17.40;6.20;;;;;;;9.30;77.91;99757.16;8202098;28;20415;-72
2022/05/15 04:31:11;;;;;;;16.73;6.70;;;;;;;9.42;77.99;99760.25;8216667;28;20058;-71
2022/05/15 04:35:12;;;;;;;13.32;5.63;;;;;;;9.59;77.71;99766.00;8201371;28;20118;-71
2022/05/15 04:39:15;;;;;;;23.52;7.18;;;;;;;9.74;78.21;99773.13;8232405;28;20059;-71
2022/05/15 04:43:15;;;;;;;20.65;6.43;;;;;;;9.87;78.56;99771.63;8229967;28;20050;-71
2022/05/15 04:47:16;;;;;;;19.55;6.93;;;;;;;10.03;79.01;99775.75;8200977;28;20142;-71
2022/05/15 04:51:17;;;;;;;22.60;6.75;;;;;;;10.21;79.25;99772.31;8201996;28;20058;-71
2022/05/15 04:55:18;;;;;;;23.88;6.65;;;;;;;10.39;79.03;99785.03;8201606;28;20130;-71
2022/05/15 04:59:19;;;;;;;23.13;7.20;;;;;;;10.50;78.49;99781.09;8202447;28;20050;-72
2022/05/15 05:03:21;;;;;;;19.50;6.40;;;;;;;10.62;77.61;99782.56;8220965;28;20537;-71
2022/05/15 05:07:21;;;;;;;19.33;6.40;;;;;;;10.73;77.14;99784.03;8228725;28;20134;-71
2022/05/15 05:11:23;;;;;;;24.10;5.72;;;;;;;10.82;76.65;99793.88;8208144;28;20146;-71
2022/05/15 05:15:23;;;;;;;21.80;5.82;;;;;;;10.95;76.13;99792.31;8211459;28;20411;-71
2022/05/15 05:19:25;;;;;;;15.95;5.10;;;;;;;11.05;75.44;99797.56;8200766;28;20483;-71
2022/05/15 05:23:25;;;;;;;13.45;4.55;;;;;;;11.15;74.98;99802.81;8201183;28;20066;-71
2022/05/15 05:27:27;;;;;;;16.70;5.30;;;;;;;11.27;74.26;99805.84;8199701;28;20090;-71
2022/05/15 05:31:27;;;;;;;17.40;4.93;;;;;;;11.33;74.09;99815.50;8201474;28;20051;-71
2022/05/15 05:35:29;;;;;;;25.95;5.93;;;;;;;11.39;73.61;99818.91;8200309;28;20055;-71
2022/05/15 05:39:29;;;;;;;18.88;4.30;;;;;;;11.47;72.20;99820.94;8213496;28;20142;-71
2022/05/15 05:43:31;;;;;;;17.90;4.32;;;;;;;11.58;72.05;99821.56;8203373;28;20044;-71
2022/05/15 05:47:33;;;;;;;16.52;4.30;;;;;;;11.63;71.48;99824.19;8199488;28;20051;-72
2022/05/15 05:51:34;;;;;;;17.70;4.43;;;;;;;11.69;71.32;99822.97;8203143;28;20082;-71
2022/05/15 05:55:34;;;;;;;14.63;3.88;;;;;;;11.76;70.88;99824.22;8224673;28;20079;-71
2022/05/15 05:59:36;;;;;;;15.23;4.30;;;;;;;11.89;70.90;99828.06;8200676;28;20047;-71
2022/05/15 06:07:56;;;;;;;16.45;4.63;;;;;;;11.95;70.59;99837.66;8181094;29;20483;-71
2022/05/15 06:11:57;;;;;;;17.48;4.55;;;;;;;12.01;70.55;99836.47;8199577;28;20052;-71
2022/05/15 06:15:58;;;;;;;18.38;4.28;;;;;;;12.15;70.53;99842.72;8199424;28;20101;-71
2022/05/15 06:20:03;;;;;;;16.25;4.40;;;;;;;12.33;70.43;99838.28;8197742;28;20110;-71
2022/05/15 06:24:04;;;;;;;15.25;3.60;;;;;;;12.46;69.23;99836.66;8199248;28;20101;-71
2022/05/15 06:28:05;;;;;;;16.77;3.97;;;;;;;12.55;68.57;99840.25;8199025;28;20059;-71
2022/05/15 06:32:08;;;;;;;15.13;3.95;;;;;;;12.61;68.69;99847.19;8199060;28;20047;-72
2022/05/15 06:36:09;;;;;;;15.93;3.53;;;;;;;12.74;68.14;99848.28;8225905;28;20059;-71
2022/05/15 06:40:14;;;;;;;26.77;3.83;;;;;;;12.86;68.03;99841.19;8211436;28;20055;-71
2022/05/15 06:44:16;;;;;;;11.18;3.30;;;;;;;12.92;67.33;99850.81;8204940;28;20040;-71
2022/05/15 06:48:17;;;;;;;12.27;3.45;;;;;;;12.93;67.11;99852.44;8222379;28;20051;-71
2022/05/15 06:52:22;;;;;;;18.42;3.10;;;;;;;13.02;66.67;99850.56;8203933;28;20058;-71
2022/05/15 07:00:43;;;;;;;9.25;2.90;;;;;;;13.30;66.64;99850.50;8223842;28;20515;-72
2022/05/15 07:04:44;;;;;;;14.00;2.80;;;;;;;13.44;65.92;99856.66;8203136;28;20062;-71
2022/05/15 07:08:45;;;;;;;12.07;2.67;;;;;;;13.52;64.51;99864.06;8208798;28;20058;-72
2022/05/15 07:12:46;;;;;;;9.07;2.92;;;;;;;13.59;64.35;99852.78;8186398;28;20051;-71
2022/05/15 07:16:47;;;;;;;11.63;2.80;;;;;;;13.73;63.36;99867.88;8214629;28;20439;-72
2022/05/15 07:20:49;;;;;;;8.40;2.97;;;;;;;13.74;63.90;99850.47;8203678;28;20053;-71
2022/05/15 07:24:50;;;;;;;7.05;3.03;;;;;;;13.79;63.73;99858.50;8203905;28;20046;-72
2022/05/15 07:28:51;;;;;;;9.63;2.85;;;;;;;13.90;62.12;99859.84;8200190;28;20053;-72
2022/05/15 07:32:52;;;;;;;6.13;2.30;;;;;;;14.01;60.42;99856.84;8178843;28;20288;-71
2022/05/15 07:36:53;;;;;;;9.30;2.30;;;;;;;14.15;61.19;99860.25;8189808;28;20058;-72
2022/05/15 07:40:55;;;;;;;10.65;2.33;;;;;;;14.34;60.22;99858.88;8188535;28;20060;-72
2022/05/15 07:44:59;;;;;;;10.23;2.17;;;;;;;14.44;59.94;99855.09;8174818;29;20048;-72
2022/05/15 07:49:00;;;;;;;6.03;1.80;;;;;;;14.46;57.89;99860.22;8171452;28;20102;-74
2022/05/15 07:53:01;;;;;;;8.77;1.98;;;;;;;14.59;57.33;99860.06;8171411;29;20079;-72
2022/05/15 07:57:03;;;;;;;13.18;2.15;;;;;;;14.73;56.93;99868.91;8202364;28;20703;-71
2022/05/15 08:01:05;;;;;;;10.70;2.42;;;;;;;14.84;56.84;99849.56;8203490;28;20066;-71
2022/05/15 08:09:35;;;;;;;13.80;1.65;;;;;;;15.11;56.12;99852.00;8215351;28;20067;-72
2022/05/15 08:13:37;;;;;;;12.60;2.47;;;;;;;15.19;55.17;99856.63;8203798;28;20102;-73
2022/05/15 08:17:38;;;;;;;5.80;1.40;;;;;;;15.38;54.53;99862.53;8201950;28;20549;-72
2022/05/15 08:25:59;;;;;;;5.43;1.50;;;;;;;15.52;53.49;99860.47;8202200;28;20058;-72
2022/05/15 08:30:00;;;;;;;7.40;1.58;;;;;;;15.53;52.36;99862.06;8207803;28;20078;-72
2022/05/15 08:34:01;;;;;;;9.13;1.60;;;;;;;15.69;50.75;99861.56;8202071;28;20047;-72
2022/05/15 08:38:03;;;;;;;4.75;1.40;;;;;;;15.78;49.79;99863.13;8200989;28;20106;-72
2022/05/15 08:42:14;;;;;;;7.97;1.42;;;;;;;15.95;50.92;99867.72;8201655;28;20066;-72
2022/05/15 08:46:46;;;;;;;7.85;1.65;;;;;;;16.15;49.00;99871.66;8205554;28;20044;-72
2022/05/15 08:50:51;;;;;;;4.40;1.13;;;;;;;16.24;47.95;99865.03;8200693;28;20530;-71
2022/05/15 08:54:57;;;;;;;8.80;1.70;;;;;;;16.32;48.11;99861.47;8215561;28;20055;-72
2022/05/15 08:58:58;;;;;;;6.20;2.40;;;;;;;16.45;48.05;99860.44;8199890;28;20054;-76
2022/05/15 09:03:20;;;;;;;11.23;1.70;;;;;;;16.72;49.07;99863.84;8216217;28;20554;-71
2022/05/15 09:07:28;;;;;;;4.32;1.40;;;;;;;16.95;48.12;99873.31;8227289;28;20047;-72
2022/05/15 09:11:32;;;;;;;6.38;1.40;;;;;;;16.96;46.78;99874.94;8229603;28;20051;-72
2022/05/15 09:15:34;;;;;;;6.40;1.45;;;;;;;16.99;47.01;99868.78;8202817;28;20053;-72
2022/05/15 09:19:37;;;;;;;10.63;1.58;;;;;;;17.31;46.64;99872.69;8231558;28;20046;-73
2022/05/15 09:23:40;;;;;;;8.10;1.20;;;;;;;17.31;44.98;99876.22;8210593;28;20439;-71
2022/05/15 09:27:57;;;;;;;4.57;1.10;;;;;;;17.34;45.41;99863.88;8203806;28;20403;-72
2022/05/15 09:31:58;;;;;;;6.45;1.13;;;;;;;17.58;45.15;99868.59;8198668;28;20059;-72
2022/05/15 09:36:27;;;;;;;4.28;1.40;;;;;;;17.64;45.33;99868.09;8200055;28;20086;-72
2022/05/15 09:45:30;;;;;;;4.10;1.30;;;;;;;17.86;44.09;99864.16;8119632;29;20472;-72
2022/05/15 09:49:33;;;;;;;3.70;1.10;;;;;;;17.85;42.27;99857.09;8130903;29;20080;-73
2022/05/15 09:53:38;;;;;;;4.05;1.15;;;;;;;17.90;42.84;99865.06;8132735;29;20544;-73
2022/05/15 09:57:56;;;;;;;7.25;1.30;;;;;;;17.98;42.75;99855.97;8136202;29;20107;-72
2022/05/15 10:01:59;;;;;;;4.60;1.30;;;;;;;18.21;43.20;99869.22;8135591;29;20048;-72
2022/05/15 10:06:09;;;;;;;8.43;1.30;;;;;;;18.29;41.57;99865.59;8160954;29;20055;-72
2022/05/15 10:10:16;;;;;;;4.55;1.25;;;;;;;18.40;41.45;99866.72;8157937;29;20056;-73
2022/05/15 10:14:27;;;;;;;4.97;1.25;;;;;;;18.35;40.32;99867.72;8158030;29;20551;-72
2022/05/15 10:18:43;;;;;;;3.47;1.05;;;;;;;18.51;40.82;99867.84;8139148;29;20075;-72
2022/05/15 10:22:50;;;;;;;3.63;1.30;;;;;;;18.51;40.34;99867.84;8217516;28;20078;-72
2022/05/15 10:27:16;;;;;;;6.03;1.10;;;;;;;18.81;39.45;99865.69;8216676;28;20058;-71
2022/05/15 10:31:27;;;;;;;4.50;1.00;;;;;;;18.90;38.90;99858.94;8207845;28;20499;-72
2022/05/15 10:36:05;;;;;;;5.72;0.90;;;;;;;19.09;38.97;99865.75;8219323;28;20479;-72
2022/05/15 10:40:22;;;;;;;3.35;1.13;;;;;;;19.12;37.00;99860.38;8176043;28;20055;-72
2022/05/15 10:44:33;;;;;;;7.03;1.10;;;;;;;19.04;36.60;99863.22;8192819;28;20068;-71
2022/05/15 10:49:15;;;;;;;3.22;0.80;;;;;;;18.88;36.03;99855.75;8172779;29;20075;-72
2022/05/15 10:58:03;;;;;;;5.43;1.00;;;;;;;19.44;37.30;99850.31;8200335;29;20048;-71
2022/05/15 11:02:33;;;;;;;5.97;1.05;;;;;;;19.43;37.16;99843.25;8199780;28;20043;-72
2022/05/15 11:06:58;;;;;;;4.65;0.82;;;;;;;19.55;37.00;99829.53;8199458;29;20613;-73
2022/05/15 11:11:07;;;;;;;2.05;0.95;;;;;;;19.64;35.82;99832.09;8199356;28;20058;-72
2022/05/15 11:15:13;;;;;;;;;;;;;;;19.68;36.18;99822.00;8199649;29;20094;-72
2022/05/15 11:19:34;;;;;;;3.92;0.80;;;;;;;19.94;36.50;99811.31;8198989;28;20435;-72
2022/05/15 11:23:37;;;;;;;3.47;0.85;;;;;;;20.18;34.76;99813.09;8198396;28;20047;-71
2022/05/15 11:27:49;;;;;;;4.50;1.00;;;;;;;20.28;33.92;99807.06;8165304;29;20161;-71
2022/05/15 11:31:55;;;;;;;4.22;0.80;;;;;;;20.46;33.72;99813.78;8176523;29;20056;-71
2022/05/15 11:36:10;;;;;;;4.05;1.00;;;;;;;20.42;33.02;99801.94;8170658;29;20043;-71
2022/05/15 11:40:28;;;;;;;3.35;0.80;;;;;;;20.28;34.19;99796.09;8176280;28;20055;-72
2022/05/15 11:44:37;;;;;;;2.83;0.80;;;;;;;20.61;34.24;99796.50;8199495;29;20062;-71
2022/05/15 11:48:38;;;;;;;1.63;0.80;;;;;;;20.65;32.41;99800.13;8201729;28;20043;-72
2022/05/15 11:52:43;;;;;;;2.05;0.85;;;;;;;20.83;32.67;99799.72;8201553;28;20102;-72
2022/05/15 11:56:53;;;;;;;2.88;0.85;;;;;;;20.94;31.76;99800.69;8249130;28;20074;-71
2022/05/15 12:01:38;;;;;;;4.10;0.73;;;;;;;20.99;31.37;99797.69;8243250;28;20038;-71
2022/05/15 12:06:02;;;;;;;3.10;0.77;;;;;;;20.91;31.09;99784.97;8165774;29;20048;-71
2022/05/15 12:10:04;;;;;;;3.30;0.80;;;;;;;21.02;32.00;99796.97;8165466;29;20052;-72
2022/05/15 12:14:26;;;;;;;3.83;0.90;;;;;;;21.21;31.58;99794.22;8160125;29;20043;-73
2022/05/15 12:18:31;;;;;;;4.32;1.15;;;;;;;21.05;31.28;99774.25;8165571;29;20195;-72
2022/05/15 12:22:43;;;;;;;4.95;0.85;;;;;;;21.47;32.09;99775.09;8165026;29;20138;-71
2022/05/15 12:26:55;;;;;;;2.25;0.77;;;;;;;21.34;31.01;99770.94;8158017;29;20039;-72
2022/05/15 12:30:56;;;;;;;3.15;1.20;;;;;;;21.30;30.53;99775.59;8162598;29;20534;-71
2022/05/15 12:34:58;;;;;;;1.50;0.80;;;;;;;21.17;31.15;99760.41;8134999;29;20520;-72
2022/05/15 12:38:59;;;;;;;2.42;0.98;;;;;;;21.27;30.72;99765.31;8132732;29;20076;-72
2022/05/15 12:43:02;;;;;;;2.72;0.70;;;;;;;21.48;30.99;99759.41;8159708;28;20503;-72
2022/05/15 12:47:06;;;;;;;2.60;1.02;;;;;;;21.68;30.89;99746.41;8174509;29;20044;-72
2022/05/15 12:51:09;;;;;;;2.25;0.70;;;;;;;21.49;29.80;99750.81;8182328;28;20134;-71
2022/05/15 12:55:24;;;;;;;2.25;0.77;;;;;;;21.73;29.91;99754.34;8197124;28;20047;-72
2022/05/15 12:59:28;;;;;;;2.25;0.80;;;;;;;22.11;29.92;99737.69;8187981;29;20527;-72
2022/05/15 13:03:29;;;;;;;5.60;0.98;;;;;;;22.11;29.26;99732.19;8185068;28;20047;-72
2022/05/15 13:07:38;;;;;;;2.22;0.80;;;;;;;22.02;28.58;99739.91;8178299;29;20043;-72
2022/05/15 13:11:46;;;;;;;4.10;0.80;;;;;;;21.82;28.74;99738.41;8175774;29;20043;-72
2022/05/15 13:15:49;;;;;;;4.60;1.00;;;;;;;22.01;29.57;99732.84;8138180;29;20058;-72
2022/05/15 13:19:52;;;;;;;4.03;1.00;;;;;;;22.24;29.64;99746.53;8180960;28;20043;-72
2022/05/15 13:23:53;;;;;;;1.27;0.80;;;;;;;22.32;29.32;99732.50;8203753;28;20043;-72
2022/05/15 13:27:54;;;;;;;3.28;0.93;;;;;;;22.75;28.41;99727.59;8180377;28;20048;-72
2022/05/15 13:31:57;;;;;;;2.83;0.90;;;;;;;24.34;27.14;99722.78;8179748;28;20074;-72
2022/05/15 13:36:00;;;;;;;4.63;0.85;;;;;;;26.02;25.13;99720.03;8192903;28;20048;-71
2022/05/15 13:44:37;;;;;;;1.95;0.80;;;;;;;28.17;22.55;99716.56;8183761;28;20162;-71
2022/05/15 13:48:58;;;;;;;1.95;0.70;;;;;;;28.91;21.41;99710.94;8176096;29;20044;-72
2022/05/15 13:53:20;;;;;;;5.95;0.82;;;;;;;29.55;19.88;99704.47;8176824;28;20132;-72
2022/05/15 13:57:22;;;;;;;2.08;0.80;;;;;;;30.32;20.36;99707.09;8178012;28;20063;-74
2022/05/15 14:01:29;;;;;;;1.63;0.65;;;;;;;30.44;19.16;99703.69;8172826;29;20119;-73
2022/05/15 14:05:38;;;;;;;2.75;0.98;;;;;;;30.58;19.02;99697.84;8205163;28;20148;-73
2022/05/15 14:09:49;;;;;;;2.13;0.85;;;;;;;31.42;18.54;99699.97;8180010;28;21395;-74
2022/05/15 14:13:53;;;;;;;3.63;1.15;;;;;;;32.58;18.20;99694.56;8171852;29;20400;-74
2022/05/15 14:17:58;;;;;;;3.83;1.00;;;;;;;33.52;17.92;99700.53;8172700;29;20058;-73
2022/05/15 14:22:03;;;;;;;2.72;1.13;;;;;;;34.67;16.65;99696.88;8182317;28;20051;-71
2022/05/15 14:26:06;;;;;;;1.42;0.68;;;;;;;34.68;16.70;99694.88;8182398;28;20054;-73
2022/05/15 14:30:08;;;;;;;2.60;0.90;;;;;;;34.85;16.37;99693.41;8241836;28;20055;-72
2022/05/15 14:34:12;;;;;;;2.30;0.90;;;;;;;35.07;16.28;99693.38;8242651;28;20054;-73
2022/05/15 14:38:13;;;;;;;1.50;0.80;;;;;;;34.78;15.95;99690.13;8251338;28;20406;-72
2022/05/15 14:42:14;;;;;;;1.90;0.88;;;;;;;35.66;15.93;99689.38;8242920;28;20051;-73
2022/05/15 14:46:19;;;;;;;3.55;0.90;;;;;;;36.56;15.41;99689.91;8247029;28;20047;-71
2022/05/15 14:50:21;;;;;;;2.38;0.82;;;;;;;35.97;14.77;99692.09;8234543;28;20054;-73
2022/05/15 14:54:24;;;;;;;3.33;0.90;;;;;;;35.06;16.27;99691.81;8205461;28;20046;-73
2022/05/15 14:58:25;;;;;;;4.57;0.88;;;;;;;35.89;15.43;99690.84;8236628;28;20046;-73
2022/05/15 15:02:26;;;;;;;2.10;0.80;;;;;;;36.38;15.05;99683.03;8194453;28;20044;-72
2022/05/15 15:06:27;;;;;;;1.60;0.70;;;;;;;36.93;14.75;99682.97;8193332;28;20083;-72
2022/05/15 15:10:31;;;;;;;2.92;0.90;;;;;;;36.59;15.05;99691.78;8179542;28;20040;-71
2022/05/15 15:14:32;;;;;;;1.90;0.80;;;;;;;34.71;15.14;99683.53;8195337;28;20099;-75
2022/05/15 15:18:36;;;;;;;3.25;0.95;;;;;;;33.93;15.82;99686.34;8182960;28;20115;-73
2022/05/15 15:22:37;;;;;;;3.65;1.10;;;;;;;34.39;15.33;99689.53;8227384;28;20050;-74
2022/05/15 15:26:39;;;;;;;2.78;0.90;;;;;;;34.63;15.58;99682.22;8203626;28;20055;-74
2022/05/15 15:30:40;;;;;;;1.25;0.80;;;;;;;33.65;16.37;99681.66;8200005;28;20423;-74
2022/05/15 15:34:41;;;;;;;3.50;0.90;;;;;;;33.51;16.51;99684.94;8231881;28;20049;-75
2022/05/15 15:38:42;;;;;;;1.80;0.80;;;;;;;32.46;17.71;99681.34;8223574;28;20415;-74
2022/05/15 15:42:44;;;;;;;1.80;0.90;;;;;;;30.99;18.58;99682.59;8201624;28;20110;-74
2022/05/15 15:46:45;;;;;;;1.65;0.90;;;;;;;29.97;19.57;99674.34;8197149;28;20495;-75
2022/05/15 15:50:47;;;;;;;3.20;0.80;;;;;;;29.43;20.36;99668.88;8195193;28;20047;-76
2022/05/15 15:54:48;;;;;;;3.00;0.80;;;;;;;30.28;19.20;99672.16;8160793;28;20138;-76
2022/05/15 15:58:52;;;;;;;3.20;1.00;;;;;;;30.68;19.04;99667.38;8195408;28;20506;-74
2022/05/15 16:02:54;;;;;;;1.42;0.90;;;;;;;30.65;19.29;99663.47;8197317;29;20047;-76
2022/05/15 16:06:56;;;;;;;2.42;0.98;;;;;;;30.43;19.24;99657.50;8195905;28;20047;-76
2022/05/15 16:10:58;;;;;;;0.93;0.80;;;;;;;30.39;19.28;99662.38;8197458;28;20043;-74
2022/05/15 16:15:00;;;;;;;2.55;0.90;;;;;;;29.13;20.57;99655.03;8181981;28;20044;-74
2022/05/15 16:19:01;;;;;;;5.15;0.90;;;;;;;28.65;21.08;99647.72;8190228;28;20558;-74
2022/05/15 16:23:03;;;;;;;4.72;1.00;;;;;;;28.07;21.59;99646.81;8205564;28;20047;-73
2022/05/15 16:27:11;;;;;;;3.20;1.02;;;;;;;26.76;23.16;99660.88;8216032;28;20066;-74
2022/05/15 16:31:12;;;;;;;3.08;1.13;;;;;;;25.46;24.64;99649.72;8197396;28;20051;-74
2022/05/15 16:35:13;;;;;;;3.10;0.93;;;;;;;24.87;25.65;99651.19;8204079;28;20134;-74
2022/05/15 16:39:14;;;;;;;3.92;1.00;;;;;;;24.69;25.26;99651.13;8197814;29;20063;-75
2022/05/15 16:43:17;;;;;;;2.03;0.90;;;;;;;24.42;25.96;99647.13;8181649;29;20053;-75
2022/05/15 16:47:19;;;;;;;4.07;0.90;;;;;;;24.04;26.92;99647.66;8197543;29;20162;-75
2022/05/15 16:51:20;;;;;;;3.03;1.10;;;;;;;23.59;27.85;99655.25;8197912;28;20180;-75
2022/05/15 16:55:28;;;;;;;3.47;1.00;;;;;;;23.20;28.23;99643.88;8195174;28;20522;-75
2022/05/15 16:59:30;;;;;;;3.58;1.10;;;;;;;22.82;29.01;99644.28;8201531;28;20054;-75
2022/05/15 17:03:31;;;;;;;4.00;0.80;;;;;;;22.50;30.10;99654.91;8180875;29;20124;-74
2022/05/15 17:07:32;;;;;;;6.28;0.93;;;;;;;22.23;30.57;99657.72;8199229;28;20495;-74
2022/05/15 17:11:34;;;;;;;3.78;0.95;;;;;;;21.88;31.68;99668.19;8200873;28;20797;-74
2022/05/15 17:15:37;;;;;;;4.80;1.25;;;;;;;21.65;31.66;99648.97;8200967;28;20055;-74
2022/05/15 17:19:38;;;;;;;3.22;0.88;;;;;;;21.53;32.08;99659.38;8200037;28;20051;-74
2022/05/15 17:23:40;;;;;;;1.67;0.93;;;;;;;21.32;32.37;99652.38;8200839;28;20529;-74
2022/05/15 17:27:43;;;;;;;3.45;1.00;;;;;;;21.15;33.03;99644.63;8200093;28;20047;-75
2022/05/15 17:36:03;;;;;;;4.20;1.00;;;;;;;20.84;33.84;99653.84;8199457;29;20146;-72
2022/05/15 17:40:12;;;;;;;4.15;0.85;;;;;;;20.61;34.29;99642.84;8197223;29;20051;-73
2022/05/15 17:44:13;;;;;;;3.42;1.10;;;;;;;20.30;35.24;99656.66;8196982;28;20051;-73
2022/05/15 17:48:15;;;;;;;9.02;1.10;;;;;;;20.06;36.19;99651.41;8181374;29;20403;-71
2022/05/15 17:52:18;;;;;;;2.30;0.98;;;;;;;19.75;36.67;99652.28;8198054;28;20047;-71
2022/05/15 17:56:19;;;;;;;9.15;1.20;;;;;;;19.52;37.76;99654.88;8199873;28;20049;-73
2022/05/15 18:00:27;;;;;;;4.20;1.00;;;;;;;19.30;38.17;99658.19;8199421;28;20047;-71
2022/05/15 18:04:30;;;;;;;4.78;1.30;;;;;;;19.05;39.57;99656.78;8199835;28;20054;-72
2022/05/15 18:08:31;;;;;;;4.00;1.20;;;;;;;18.83;40.34;99656.22;8213554;28;20122;-72
2022/05/15 18:12:33;;;;;;;3.83;1.63;;;;;;;18.61;41.30;99654.06;8213447;28;20055;-73
2022/05/15 18:16:34;;;;;;;4.63;2.30;;;;;;;18.38;41.74;99661.16;8197580;29;20054;-72
2022/05/15 18:20:37;;;;;;;7.22;2.38;;;;;;;18.14;42.13;99662.81;8213534;28;20052;-72
2022/05/15 18:24:41;;;;;;;8.20;2.72;;;;;;;17.88;42.88;99676.06;8228611;28;20146;-73
2022/05/15 18:28:42;;;;;;;4.95;1.80;;;;;;;17.64;43.29;99670.63;8196587;29;20055;-74
2022/05/15 18:32:44;;;;;;;11.80;2.58;;;;;;;17.44;43.67;99676.97;8203657;28;20054;-73
2022/05/15 18:36:45;;;;;;;51.00;4.03;;;;;;;17.19;44.29;99671.47;8204846;28;20051;-73
2022/05/15 18:40:46;;;;;;;14.98;2.97;;;;;;;16.95;45.46;99671.41;8218577;28;20048;-72
2022/05/15 18:44:48;;;;;;;6.32;2.75;;;;;;;16.73;46.19;99674.53;8169733;28;20134;-71
2022/05/15 18:48:53;;;;;;;4.85;2.33;;;;;;;16.48;46.82;99663.50;8182316;28;20047;-71
2022/05/15 18:57:15;;;;;;;3.95;1.70;;;;;;;16.08;48.00;99681.44;8213807;28;20074;-72
2022/05/15 19:01:16;;;;;;;3.60;1.75;;;;;;;15.91;48.14;99681.56;8211778;28;20051;-73
2022/05/15 19:05:19;;;;;;;5.80;1.67;;;;;;;15.73;48.49;99685.50;8185439;28;20431;-72
2022/05/15 19:09:20;;;;;;;7.47;2.42;;;;;;;15.52;49.19;99686.25;8180896;28;20091;-72
2022/05/15 19:13:22;;;;;;;14.82;5.70;;;;;;;15.34;50.00;99684.66;8186791;28;20500;-71
2022/05/15 19:17:23;;;;;;;23.75;7.45;;;;;;;15.19;50.38;99687.94;8204145;28;20054;-72
2022/05/15 19:21:27;;;;;;;18.10;6.82;;;;;;;14.99;50.73;99677.75;8190419;28;20055;-72
2022/05/15 19:25:29;;;;;;;17.75;6.03;;;;;;;14.83;51.33;99684.81;8185240;28;20070;-72
2022/05/15 19:29:31;;;;;;;17.38;6.70;;;;;;;14.64;51.81;99683.25;8177627;28;20048;-73
2022/05/15 19:33:33;;;;;;;17.27;6.28;;;;;;;14.51;52.15;99684.22;8176925;28;20043;-71
2022/05/15 19:37:35;;;;;;;15.00;4.47;;;;;;;14.37;52.56;99683.56;8209378;28;20040;-72
2022/05/15 19:41:38;;;;;;;10.82;3.50;;;;;;;14.21;52.77;99690.56;8172584;28;20071;-71
2022/05/15 19:45:45;;;;;;;5.70;2.22;;;;;;;14.05;53.39;99692.16;8186805;28;20047;-72
2022/05/15 19:49:46;;;;;;;5.28;1.83;;;;;;;13.90;54.14;99696.91;8204632;28;20062;-72